Tonasket, WA (98855)

8:25 PM PDT on August 29, 2016 (GMT -0700)
Sinlahekin Wildlife Area | | Change Station

Elev 1539 ft 48.75 °N, 119.65 °W | Updated 6 seconds ago

Clear
Clear
76.1 °F
Feels Like 77 °F
N
0.0
Wind Variable Wind from SE
Gusts 1.0 mph

Today
High -- | Low -- °F
--% Chance of Precip.
Yesterday
High -- | Low -- °F
Precip. -- in
Pressure 29.85 in
Visibility 10.0 miles
Clouds Clear
Heat Index 77 °F
Dew Point 42 °F
Humidity 29%
Rainfall 0.00 in
Snow Depth Not available.
6:11 AM 7:44 PM
Waning Crescent, 5% visible
METAR KOMK 300253Z AUTO 00000KT 10SM CLR 24/02 A2987 RMK AO2 SLP108 T02390022 56007
Pressure 29.85 in
Visibility 10.0 miles
Clouds Clear
Heat Index 77 °F
Dew Point 42 °F
Humidity 29%
Rainfall 0.00 in
Snow Depth Not available.
6:11 AM 7:44 PM
Waning Crescent, 5% visible
METAR KOMK 300253Z AUTO 00000KT 10SM CLR 24/02 A2987 RMK AO2 SLP108 T02390022 56007

10-Day Weather Forecast

Almanac

Astronomy

Aug. 29, 2016 Rise Set
Actual Time
Civil Twilight
Nautical Twilight
Astronomical Twilight
Moon
Length of Visible Light
Length of Day
Tomorrow will be .
, % of the Moon is Illuminated

Today's Extremes

State Highs State Lows

Community

WunderPhotos

Upload Photos

1,935,777 photos uploaded!

WunderBlog® & News

Nearby

Air Quality

  Air Quality AQ Index Pollutant
Not available.

Snow Depth

Station Depth Elevation

Earthquake Activity

City Distance Mag. Time & Date
Minimum magnitude displayed is 2.5.

Coastal Water Temperatures

Place Temperature

Stations

Nearby Weather Stations

Station Location Temp. Windchill Dew Point Humidity Wind Precip. Elev Updated Type
                   

Watches & Warnings

There are currently no watches in effect.